sensor_id;sensor_type;location;lat;lon;timestamp;pressure;altitude;pressure_sealevel;temperature;humidity
8047;BME280;67150;42.516;23.358;2023-02-02T00:01:11;88298.25;;;3.81;55.24
8047;BME280;67150;42.516;23.358;2023-02-02T00:03:58;88281.66;;;3.64;55.55
8047;BME280;67150;42.516;23.358;2023-02-02T00:06:45;88301.63;;;3.80;55.43
8047;BME280;67150;42.516;23.358;2023-02-02T00:09:31;88290.34;;;3.73;55.32
8047;BME280;67150;42.516;23.358;2023-02-02T00:12:17;88297.59;;;3.77;55.51
8047;BME280;67150;42.516;23.358;2023-02-02T00:15:04;88297.09;;;3.71;55.63
8047;BME280;67150;42.516;23.358;2023-02-02T00:17:51;88297.44;;;3.80;55.26
8047;BME280;67150;42.516;23.358;2023-02-02T00:20:38;88295.16;;;3.76;55.71
8047;BME280;67150;42.516;23.358;2023-02-02T00:23:24;88302.09;;;3.71;55.41
8047;BME280;67150;42.516;23.358;2023-02-02T00:26:10;88297.25;;;3.68;55.56
8047;BME280;67150;42.516;23.358;2023-02-02T00:28:56;88289.63;;;3.71;55.74
8047;BME280;67150;42.516;23.358;2023-02-02T00:31:42;88284.59;;;3.72;55.21
8047;BME280;67150;42.516;23.358;2023-02-02T00:34:30;88288.19;;;3.67;55.51
8047;BME280;67150;42.516;23.358;2023-02-02T00:37:18;88293.19;;;3.67;55.62
8047;BME280;67150;42.516;23.358;2023-02-02T00:40:04;88288.91;;;3.69;55.42
8047;BME280;67150;42.516;23.358;2023-02-02T00:42:50;88290.69;;;3.67;55.46
8047;BME280;67150;42.516;23.358;2023-02-02T00:45:36;88292.84;;;3.73;55.42
8047;BME280;67150;42.516;23.358;2023-02-02T00:48:21;88293.34;;;3.79;55.52
8047;BME280;67150;42.516;23.358;2023-02-02T00:51:09;88286.97;;;3.74;55.47
8047;BME280;67150;42.516;23.358;2023-02-02T00:53:56;88285.44;;;3.71;55.50
8047;BME280;67150;42.516;23.358;2023-02-02T00:56:42;88284.78;;;3.68;55.51
8047;BME280;67150;42.516;23.358;2023-02-02T00:59:28;88288.09;;;3.68;55.77
8047;BME280;67150;42.516;23.358;2023-02-02T01:02:14;88300.91;;;3.78;55.36
8047;BME280;67150;42.516;23.358;2023-02-02T01:05:00;88288.44;;;3.78;55.69
8047;BME280;67150;42.516;23.358;2023-02-02T01:07:46;88299.94;;;3.80;55.35
8047;BME280;67150;42.516;23.358;2023-02-02T01:10:34;88295.81;;;3.79;55.67
8047;BME280;67150;42.516;23.358;2023-02-02T01:13:20;88294.84;;;3.82;55.52
8047;BME280;67150;42.516;23.358;2023-02-02T01:16:06;88288.13;;;3.84;55.18
8047;BME280;67150;42.516;23.358;2023-02-02T01:18:52;88281.38;;;3.86;55.09
8047;BME280;67150;42.516;23.358;2023-02-02T01:21:38;88282.50;;;3.80;55.32
8047;BME280;67150;42.516;23.358;2023-02-02T01:24:24;88290.78;;;3.81;55.43
8047;BME280;67150;42.516;23.358;2023-02-02T01:27:12;88293.84;;;3.86;55.26
8047;BME280;67150;42.516;23.358;2023-02-02T01:29:57;88279.75;;;3.85;55.09
8047;BME280;67150;42.516;23.358;2023-02-02T01:32:43;88274.00;;;3.84;55.09
8047;BME280;67150;42.516;23.358;2023-02-02T01:35:29;88272.69;;;3.77;55.34
8047;BME280;67150;42.516;23.358;2023-02-02T01:38:15;88278.13;;;3.68;55.55
8047;BME280;67150;42.516;23.358;2023-02-02T01:41:01;88271.66;;;3.81;55.14
8047;BME280;67150;42.516;23.358;2023-02-02T01:43:53;88276.38;;;3.70;55.47
8047;BME280;67150;42.516;23.358;2023-02-02T01:46:39;88267.59;;;3.79;55.26
8047;BME280;67150;42.516;23.358;2023-02-02T01:49:25;88269.78;;;3.85;55.02
8047;BME280;67150;42.516;23.358;2023-02-02T01:52:12;88264.19;;;3.81;55.20
8047;BME280;67150;42.516;23.358;2023-02-02T01:55:03;88259.66;;;3.72;55.69
8047;BME280;67150;42.516;23.358;2023-02-02T01:57:53;88250.09;;;3.65;55.69
8047;BME280;67150;42.516;23.358;2023-02-02T02:00:41;88231.44;;;3.56;55.84
8047;BME280;67150;42.516;23.358;2023-02-02T02:03:31;88237.88;;;3.76;55.52
8047;BME280;67150;42.516;23.358;2023-02-02T02:06:19;88237.16;;;3.74;55.71
8047;BME280;67150;42.516;23.358;2023-02-02T02:09:05;88238.28;;;3.68;55.79
8047;BME280;67150;42.516;23.358;2023-02-02T02:11:53;88225.91;;;3.67;55.36
8047;BME280;67150;42.516;23.358;2023-02-02T02:14:39;88240.06;;;3.66;55.49
8047;BME280;67150;42.516;23.358;2023-02-02T02:17:58;88234.41;;;3.63;55.58
8047;BME280;67150;42.516;23.358;2023-02-02T02:21:04;88231.22;;;3.61;55.39
8047;BME280;67150;42.516;23.358;2023-02-02T02:24:30;88237.06;;;3.60;55.34
8047;BME280;67150;42.516;23.358;2023-02-02T02:28:00;88235.72;;;3.70;55.37
8047;BME280;67150;42.516;23.358;2023-02-02T02:34:25;88259.97;;;3.66;55.73
8047;BME280;67150;42.516;23.358;2023-02-02T02:37:25;88252.25;;;3.71;55.41
8047;BME280;67150;42.516;23.358;2023-02-02T02:40:20;88256.59;;;3.67;55.43
8047;BME280;67150;42.516;23.358;2023-02-02T02:43:11;88255.97;;;3.64;55.78
8047;BME280;67150;42.516;23.358;2023-02-02T02:45:59;88248.56;;;3.62;55.71
8047;BME280;67150;42.516;23.358;2023-02-02T02:48:45;88256.44;;;3.55;55.75
8047;BME280;67150;42.516;23.358;2023-02-02T02:51:45;88249.03;;;3.53;55.76
8047;BME280;67150;42.516;23.358;2023-02-02T02:54:33;88246.03;;;3.47;56.14
8047;BME280;67150;42.516;23.358;2023-02-02T02:57:35;88266.09;;;3.61;56.01
8047;BME280;67150;42.516;23.358;2023-02-02T03:00:38;88259.00;;;3.69;55.57
8047;BME280;67150;42.516;23.358;2023-02-02T03:03:45;88249.94;;;3.68;55.64
8047;BME280;67150;42.516;23.358;2023-02-02T03:06:38;88246.88;;;3.63;55.75
8047;BME280;67150;42.516;23.358;2023-02-02T03:09:31;88255.97;;;3.64;56.19
8047;BME280;67150;42.516;23.358;2023-02-02T03:12:17;88249.06;;;3.69;55.76
8047;BME280;67150;42.516;23.358;2023-02-02T03:15:05;88251.53;;;3.69;55.79
8047;BME280;67150;42.516;23.358;2023-02-02T03:17:52;88254.03;;;3.69;55.68
8047;BME280;67150;42.516;23.358;2023-02-02T03:20:38;88250.22;;;3.62;55.97
8047;BME280;67150;42.516;23.358;2023-02-02T03:23:24;88232.97;;;3.59;55.59
8047;BME280;67150;42.516;23.358;2023-02-02T03:26:12;88238.91;;;3.56;55.80
8047;BME280;67150;42.516;23.358;2023-02-02T03:28:59;88229.59;;;3.60;55.53
8047;BME280;67150;42.516;23.358;2023-02-02T03:31:45;88234.16;;;3.52;56.14
8047;BME280;67150;42.516;23.358;2023-02-02T03:34:31;88235.34;;;3.45;55.92
8047;BME280;67150;42.516;23.358;2023-02-02T03:37:17;88224.44;;;3.47;55.80
8047;BME280;67150;42.516;23.358;2023-02-02T03:40:05;88226.69;;;3.52;55.80
8047;BME280;67150;42.516;23.358;2023-02-02T03:42:53;88214.25;;;3.52;55.87
8047;BME280;67150;42.516;23.358;2023-02-02T03:45:39;88210.13;;;3.51;55.58
8047;BME280;67150;42.516;23.358;2023-02-02T03:48:25;88236.06;;;3.47;55.69
8047;BME280;67150;42.516;23.358;2023-02-02T03:51:13;88241.69;;;3.50;55.59
8047;BME280;67150;42.516;23.358;2023-02-02T03:53:59;88247.91;;;3.43;55.83
8047;BME280;67150;42.516;23.358;2023-02-02T03:56:44;88246.63;;;3.52;55.84
8047;BME280;67150;42.516;23.358;2023-02-02T03:59:32;88248.97;;;3.55;56.00
8047;BME280;67150;42.516;23.358;2023-02-02T04:02:18;88251.13;;;3.61;55.69
8047;BME280;67150;42.516;23.358;2023-02-02T04:05:04;88257.16;;;3.57;56.07
8047;BME280;67150;42.516;23.358;2023-02-02T04:07:50;88247.28;;;3.55;55.73
8047;BME280;67150;42.516;23.358;2023-02-02T04:10:36;88259.94;;;3.51;56.05
8047;BME280;67150;42.516;23.358;2023-02-02T04:13:25;88248.47;;;3.48;56.09
8047;BME280;67150;42.516;23.358;2023-02-02T04:16:12;88269.03;;;3.52;56.03
8047;BME280;67150;42.516;23.358;2023-02-02T04:18:58;88266.56;;;3.52;55.92
8047;BME280;67150;42.516;23.358;2023-02-02T04:21:43;88273.13;;;3.53;55.91
8047;BME280;67150;42.516;23.358;2023-02-02T04:24:29;88276.00;;;3.45;55.86
8047;BME280;67150;42.516;23.358;2023-02-02T04:27:15;88264.94;;;3.51;55.90
8047;BME280;67150;42.516;23.358;2023-02-02T04:30:01;88265.94;;;3.47;56.28
8047;BME280;67150;42.516;23.358;2023-02-02T04:32:50;88274.22;;;3.47;55.82
8047;BME280;67150;42.516;23.358;2023-02-02T04:35:35;88272.97;;;3.56;55.69
8047;BME280;67150;42.516;23.358;2023-02-02T04:38:21;88273.72;;;3.40;56.21
8047;BME280;67150;42.516;23.358;2023-02-02T04:41:09;88283.06;;;3.37;56.03
8047;BME280;67150;42.516;23.358;2023-02-02T04:43:57;88282.50;;;3.48;55.78
8047;BME280;67150;42.516;23.358;2023-02-02T04:46:43;88276.81;;;3.46;55.66
8047;BME280;67150;42.516;23.358;2023-02-02T04:49:31;88276.31;;;3.39;55.83
8047;BME280;67150;42.516;23.358;2023-02-02T04:52:17;88262.63;;;3.30;55.93
8047;BME280;67150;42.516;23.358;2023-02-02T04:55:03;88263.22;;;3.35;55.92
8047;BME280;67150;42.516;23.358;2023-02-02T04:57:49;88264.00;;;3.36;55.93
8047;BME280;67150;42.516;23.358;2023-02-02T05:00:35;88267.47;;;3.33;56.04
8047;BME280;67150;42.516;23.358;2023-02-02T05:03:21;88272.66;;;3.29;55.98
8047;BME280;67150;42.516;23.358;2023-02-02T05:06:08;88277.00;;;3.25;56.12
8047;BME280;67150;42.516;23.358;2023-02-02T05:08:54;88267.19;;;3.22;56.36
8047;BME280;67150;42.516;23.358;2023-02-02T05:11:40;88273.34;;;3.15;56.27
8047;BME280;67150;42.516;23.358;2023-02-02T05:14:27;88268.38;;;3.15;56.31
8047;BME280;67150;42.516;23.358;2023-02-02T05:17:14;88254.47;;;3.11;56.20
8047;BME280;67150;42.516;23.358;2023-02-02T05:19:59;88259.44;;;3.11;56.51
8047;BME280;67150;42.516;23.358;2023-02-02T05:22:48;88261.94;;;3.11;56.41
8047;BME280;67150;42.516;23.358;2023-02-02T05:25:34;88260.47;;;3.07;56.24
8047;BME280;67150;42.516;23.358;2023-02-02T05:28:20;88260.34;;;3.10;56.51
8047;BME280;67150;42.516;23.358;2023-02-02T05:31:06;88275.19;;;3.12;56.38
8047;BME280;67150;42.516;23.358;2023-02-02T05:33:53;88271.25;;;3.08;56.28
8047;BME280;67150;42.516;23.358;2023-02-02T05:36:39;88281.06;;;3.11;56.30
8047;BME280;67150;42.516;23.358;2023-02-02T05:39:27;88264.34;;;3.13;56.23
8047;BME280;67150;42.516;23.358;2023-02-02T05:42:13;88262.06;;;3.08;56.09
8047;BME280;67150;42.516;23.358;2023-02-02T05:44:59;88270.59;;;3.04;56.29
8047;BME280;67150;42.516;23.358;2023-02-02T05:47:44;88259.44;;;3.11;56.15
8047;BME280;67150;42.516;23.358;2023-02-02T05:50:30;88267.22;;;3.05;55.96
8047;BME280;67150;42.516;23.358;2023-02-02T05:53:16;88273.06;;;3.04;56.35
8047;BME280;67150;42.516;23.358;2023-02-02T05:56:04;88273.13;;;3.03;56.24
8047;BME280;67150;42.516;23.358;2023-02-02T05:58:50;88266.34;;;3.06;56.06
8047;BME280;67150;42.516;23.358;2023-02-02T06:01:36;88268.81;;;3.06;56.12
8047;BME280;67150;42.516;23.358;2023-02-02T06:04:21;88269.78;;;3.04;55.99
8047;BME280;67150;42.516;23.358;2023-02-02T06:07:07;88265.63;;;3.04;56.11
8047;BME280;67150;42.516;23.358;2023-02-02T06:09:53;88274.09;;;3.00;56.13
8047;BME280;67150;42.516;23.358;2023-02-02T06:12:41;88280.03;;;2.98;56.06
8047;BME280;67150;42.516;23.358;2023-02-02T06:15:27;88279.88;;;3.01;55.89
8047;BME280;67150;42.516;23.358;2023-02-02T06:18:14;88277.25;;;3.04;55.84
8047;BME280;67150;42.516;23.358;2023-02-02T06:21:02;88277.47;;;2.99;55.85
8047;BME280;67150;42.516;23.358;2023-02-02T06:23:49;88290.06;;;2.96;56.03
8047;BME280;67150;42.516;23.358;2023-02-02T06:26:35;88295.47;;;3.04;55.83
8047;BME280;67150;42.516;23.358;2023-02-02T06:29:22;88307.97;;;3.03;56.04
8047;BME280;67150;42.516;23.358;2023-02-02T06:32:08;88305.34;;;3.06;55.79
8047;BME280;67150;42.516;23.358;2023-02-02T06:34:53;88313.91;;;3.00;55.82
8047;BME280;67150;42.516;23.358;2023-02-02T06:37:39;88312.91;;;3.04;56.13
8047;BME280;67150;42.516;23.358;2023-02-02T06:40:25;88310.16;;;3.09;55.97
8047;BME280;67150;42.516;23.358;2023-02-02T06:43:11;88313.75;;;3.03;56.10
8047;BME280;67150;42.516;23.358;2023-02-02T06:45:59;88311.50;;;2.99;55.92
8047;BME280;67150;42.516;23.358;2023-02-02T06:48:45;88329.59;;;3.02;56.01
8047;BME280;67150;42.516;23.358;2023-02-02T06:51:30;88332.09;;;3.02;55.86
8047;BME280;67150;42.516;23.358;2023-02-02T06:54:16;88328.03;;;3.00;56.17
8047;BME280;67150;42.516;23.358;2023-02-02T06:57:02;88315.53;;;3.01;55.93
8047;BME280;67150;42.516;23.358;2023-02-02T06:59:48;88314.00;;;2.99;56.02
8047;BME280;67150;42.516;23.358;2023-02-02T07:02:36;88322.56;;;2.93;56.37
8047;BME280;67150;42.516;23.358;2023-02-02T07:05:22;88336.91;;;3.05;56.03
8047;BME280;67150;42.516;23.358;2023-02-02T07:08:08;88337.19;;;2.99;55.80
8047;BME280;67150;42.516;23.358;2023-02-02T07:10:54;88353.16;;;2.95;56.09
8047;BME280;67150;42.516;23.358;2023-02-02T07:13:39;88363.69;;;3.00;56.17
8047;BME280;67150;42.516;23.358;2023-02-02T07:16:25;88356.22;;;3.00;55.99
8047;BME280;67150;42.516;23.358;2023-02-02T07:19:12;88357.25;;;2.96;56.17
8047;BME280;67150;42.516;23.358;2023-02-02T07:21:58;88360.53;;;2.97;56.10
8047;BME280;67150;42.516;23.358;2023-02-02T07:24:44;88367.94;;;2.98;55.99
8047;BME280;67150;42.516;23.358;2023-02-02T07:27:30;88371.22;;;2.99;55.99
8047;BME280;67150;42.516;23.358;2023-02-02T07:30:16;88373.44;;;3.05;56.23
8047;BME280;67150;42.516;23.358;2023-02-02T07:33:02;88372.53;;;3.06;56.06
8047;BME280;67150;42.516;23.358;2023-02-02T07:35:49;88378.19;;;3.09;55.92
8047;BME280;67150;42.516;23.358;2023-02-02T07:38:35;88364.44;;;3.02;56.26
8047;BME280;67150;42.516;23.358;2023-02-02T07:41:22;88369.41;;;3.02;56.38
8047;BME280;67150;42.516;23.358;2023-02-02T07:44:11;88366.59;;;3.08;56.09
8047;BME280;67150;42.516;23.358;2023-02-02T07:46:58;88362.66;;;3.04;56.27
8047;BME280;67150;42.516;23.358;2023-02-02T07:49:44;88360.38;;;3.00;56.32
8047;BME280;67150;42.516;23.358;2023-02-02T07:52:32;88356.66;;;3.08;56.14
8047;BME280;67150;42.516;23.358;2023-02-02T07:55:18;88351.09;;;3.03;56.59
8047;BME280;67150;42.516;23.358;2023-02-02T07:58:04;88340.41;;;3.01;56.33
8047;BME280;67150;42.516;23.358;2023-02-02T08:00:51;88338.78;;;3.00;56.48
8047;BME280;67150;42.516;23.358;2023-02-02T08:03:37;88336.59;;;2.94;56.79
8047;BME280;67150;42.516;23.358;2023-02-02T08:06:24;88339.59;;;3.01;56.51
8047;BME280;67150;42.516;23.358;2023-02-02T08:09:13;88333.16;;;2.97;56.74
8047;BME280;67150;42.516;23.358;2023-02-02T08:11:58;88334.84;;;2.96;56.67
8047;BME280;67150;42.516;23.358;2023-02-02T08:14:45;88329.94;;;2.95;56.84
8047;BME280;67150;42.516;23.358;2023-02-02T08:17:32;88338.06;;;2.98;56.51
8047;BME280;67150;42.516;23.358;2023-02-02T08:20:18;88323.66;;;3.05;56.54
8047;BME280;67150;42.516;23.358;2023-02-02T08:23:04;88307.97;;;3.03;56.58
8047;BME280;67150;42.516;23.358;2023-02-02T08:26:07;88317.22;;;3.01;56.52
8047;BME280;67150;42.516;23.358;2023-02-02T08:28:54;88314.50;;;3.05;56.63
8047;BME280;67150;42.516;23.358;2023-02-02T08:31:40;88324.16;;;3.11;56.63
8047;BME280;67150;42.516;23.358;2023-02-02T08:34:26;88339.06;;;3.11;56.91
8047;BME280;67150;42.516;23.358;2023-02-02T08:37:12;88333.22;;;3.12;57.10
8047;BME280;67150;42.516;23.358;2023-02-02T08:39:58;88341.88;;;3.05;56.96
8047;BME280;67150;42.516;23.358;2023-02-02T08:42:45;88334.19;;;3.10;57.01
8047;BME280;67150;42.516;23.358;2023-02-02T08:45:33;88328.09;;;3.15;56.78
8047;BME280;67150;42.516;23.358;2023-02-02T08:48:20;88324.75;;;3.16;56.72
8047;BME280;67150;42.516;23.358;2023-02-02T08:51:08;88327.97;;;3.18;56.86
8047;BME280;67150;42.516;23.358;2023-02-02T08:53:54;88325.25;;;3.23;56.80
8047;BME280;67150;42.516;23.358;2023-02-02T08:56:40;88329.13;;;3.28;56.58
8047;BME280;67150;42.516;23.358;2023-02-02T08:59:27;88318.28;;;3.29;56.57
8047;BME280;67150;42.516;23.358;2023-02-02T09:02:13;88317.84;;;3.21;57.63
8047;BME280;67150;42.516;23.358;2023-02-02T09:04:59;88325.75;;;3.29;57.39
8047;BME280;67150;42.516;23.358;2023-02-02T09:07:45;88312.84;;;3.38;57.65
8047;BME280;67150;42.516;23.358;2023-02-02T09:10:34;88311.09;;;3.23;57.94
8047;BME280;67150;42.516;23.358;2023-02-02T09:13:20;88301.50;;;3.33;57.61
8047;BME280;67150;42.516;23.358;2023-02-02T09:16:11;88311.56;;;3.31;57.91
8047;BME280;67150;42.516;23.358;2023-02-02T09:18:57;88305.47;;;3.37;57.99
8047;BME280;67150;42.516;23.358;2023-02-02T09:21:43;88309.06;;;3.31;58.21
8047;BME280;67150;42.516;23.358;2023-02-02T09:24:29;88312.44;;;3.30;58.59
8047;BME280;67150;42.516;23.358;2023-02-02T09:27:14;88297.56;;;3.29;58.78
8047;BME280;67150;42.516;23.358;2023-02-02T09:30:00;88298.00;;;3.37;58.50
8047;BME280;67150;42.516;23.358;2023-02-02T09:32:49;88294.59;;;3.38;58.83
8047;BME280;67150;42.516;23.358;2023-02-02T09:35:35;88294.47;;;3.41;58.74
8047;BME280;67150;42.516;23.358;2023-02-02T09:38:20;88290.50;;;3.54;58.67
8047;BME280;67150;42.516;23.358;2023-02-02T09:44:33;88295.06;;;3.62;58.56
8047;BME280;67150;42.516;23.358;2023-02-02T09:47:26;88298.22;;;3.65;58.63
8047;BME280;67150;42.516;23.358;2023-02-02T09:50:33;88283.94;;;3.69;58.05
8047;BME280;67150;42.516;23.358;2023-02-02T09:53:37;88287.38;;;3.66;58.93
8047;BME280;67150;42.516;23.358;2023-02-02T09:56:28;88292.84;;;3.73;59.02
8047;BME280;67150;42.516;23.358;2023-02-02T09:59:19;88287.84;;;3.73;58.65
8047;BME280;67150;42.516;23.358;2023-02-02T10:02:13;88281.69;;;3.80;59.31
8047;BME280;67150;42.516;23.358;2023-02-02T10:05:06;88273.50;;;3.78;59.23
8047;BME280;67150;42.516;23.358;2023-02-02T10:08:00;88268.09;;;3.85;59.14
8047;BME280;67150;42.516;23.358;2023-02-02T10:10:49;88270.28;;;3.91;59.04
8047;BME280;67150;42.516;23.358;2023-02-02T10:13:38;88271.47;;;4.00;58.90
8047;BME280;67150;42.516;23.358;2023-02-02T10:16:26;88266.09;;;3.92;58.77
8047;BME280;67150;42.516;23.358;2023-02-02T10:19:14;88265.53;;;4.03;59.06
8047;BME280;67150;42.516;23.358;2023-02-02T10:22:03;88260.97;;;4.11;58.53
8047;BME280;67150;42.516;23.358;2023-02-02T10:24:51;88238.91;;;4.03;58.69
8047;BME280;67150;42.516;23.358;2023-02-02T10:27:39;88263.78;;;4.05;58.46
8047;BME280;67150;42.516;23.358;2023-02-02T10:30:29;88249.53;;;4.07;58.24
8047;BME280;67150;42.516;23.358;2023-02-02T10:33:25;88252.53;;;4.13;57.63
8047;BME280;67150;42.516;23.358;2023-02-02T10:36:20;88240.38;;;4.07;58.56
8047;BME280;67150;42.516;23.358;2023-02-02T10:39:17;88246.19;;;4.08;58.74
8047;BME280;67150;42.516;23.358;2023-02-02T10:42:17;88218.50;;;4.12;58.13
8047;BME280;67150;42.516;23.358;2023-02-02T10:45:10;88224.69;;;4.21;58.29
8047;BME280;67150;42.516;23.358;2023-02-02T10:47:58;88215.50;;;4.21;58.14
8047;BME280;67150;42.516;23.358;2023-02-02T10:50:47;88204.19;;;4.16;58.83
8047;BME280;67150;42.516;23.358;2023-02-02T10:53:33;88195.94;;;4.29;58.05
8047;BME280;67150;42.516;23.358;2023-02-02T10:56:22;88179.41;;;4.28;58.13
8047;BME280;67150;42.516;23.358;2023-02-02T10:59:15;88176.97;;;4.27;58.05
8047;BME280;67150;42.516;23.358;2023-02-02T11:02:08;88165.44;;;4.40;57.79
8047;BME280;67150;42.516;23.358;2023-02-02T11:04:55;88153.59;;;4.43;57.67
8047;BME280;67150;42.516;23.358;2023-02-02T11:07:58;88157.66;;;4.30;57.79
8047;BME280;67150;42.516;23.358;2023-02-02T11:10:45;88155.72;;;4.35;57.82
8047;BME280;67150;42.516;23.358;2023-02-02T11:13:36;88142.44;;;4.35;57.78
8047;BME280;67150;42.516;23.358;2023-02-02T11:16:28;88151.44;;;4.37;57.85
8047;BME280;67150;42.516;23.358;2023-02-02T11:19:22;88153.53;;;4.45;57.99
8047;BME280;67150;42.516;23.358;2023-02-02T11:22:23;88153.69;;;4.42;58.03
8047;BME280;67150;42.516;23.358;2023-02-02T11:25:25;88136.56;;;4.36;58.19
8047;BME280;67150;42.516;23.358;2023-02-02T11:28:17;88144.59;;;4.41;58.55
8047;BME280;67150;42.516;23.358;2023-02-02T11:31:03;88133.81;;;4.40;58.32
8047;BME280;67150;42.516;23.358;2023-02-02T11:33:50;88114.97;;;4.50;57.74
8047;BME280;67150;42.516;23.358;2023-02-02T11:36:36;88133.06;;;4.54;57.58
8047;BME280;67150;42.516;23.358;2023-02-02T11:39:22;88134.03;;;4.51;57.75
8047;BME280;67150;42.516;23.358;2023-02-02T11:42:12;88119.88;;;4.52;58.23
8047;BME280;67150;42.516;23.358;2023-02-02T11:45:03;88126.38;;;4.55;58.06
8047;BME280;67150;42.516;23.358;2023-02-02T11:47:50;88125.22;;;4.60;57.28
8047;BME280;67150;42.516;23.358;2023-02-02T11:50:38;88119.59;;;4.57;56.58
8047;BME280;67150;42.516;23.358;2023-02-02T11:53:31;88118.44;;;4.62;56.36
8047;BME280;67150;42.516;23.358;2023-02-02T11:56:19;88111.59;;;4.66;55.72
8047;BME280;67150;42.516;23.358;2023-02-02T11:59:25;88110.13;;;4.47;55.91
8047;BME280;67150;42.516;23.358;2023-02-02T12:02:24;88113.69;;;4.43;56.87
8047;BME280;67150;42.516;23.358;2023-02-02T12:05:32;88122.72;;;4.46;57.08
8047;BME280;67150;42.516;23.358;2023-02-02T12:08:21;88115.47;;;4.41;56.87
8047;BME280;67150;42.516;23.358;2023-02-02T12:11:11;88145.56;;;4.38;56.82
8047;BME280;67150;42.516;23.358;2023-02-02T12:14:10;88125.78;;;4.35;56.58
8047;BME280;67150;42.516;23.358;2023-02-02T12:17:17;88117.84;;;4.29;56.42
8047;BME280;67150;42.516;23.358;2023-02-02T12:20:29;88118.28;;;4.21;56.61
8047;BME280;67150;42.516;23.358;2023-02-02T12:23:31;88125.16;;;4.32;56.11
8047;BME280;67150;42.516;23.358;2023-02-02T12:26:24;88125.31;;;4.29;56.11
8047;BME280;67150;42.516;23.358;2023-02-02T12:29:31;88131.72;;;4.19;56.00
8047;BME280;67150;42.516;23.358;2023-02-02T12:32:26;88127.38;;;4.22;55.78
8047;BME280;67150;42.516;23.358;2023-02-02T12:35:27;88119.66;;;4.11;56.29
8047;BME280;67150;42.516;23.358;2023-02-02T12:38:22;88129.09;;;4.06;56.43
8047;BME280;67150;42.516;23.358;2023-02-02T12:41:23;88135.22;;;4.01;56.40
8047;BME280;67150;42.516;23.358;2023-02-02T12:44:16;88146.50;;;3.92;56.82
8047;BME280;67150;42.516;23.358;2023-02-02T12:47:15;88154.50;;;3.97;56.49
8047;BME280;67150;42.516;23.358;2023-02-02T12:50:23;88154.84;;;3.91;56.82
8047;BME280;67150;42.516;23.358;2023-02-02T12:53:22;88156.94;;;3.99;56.37
8047;BME280;67150;42.516;23.358;2023-02-02T12:56:20;88141.50;;;3.92;56.63
8047;BME280;67150;42.516;23.358;2023-02-02T12:59:13;88141.13;;;3.84;56.55
8047;BME280;67150;42.516;23.358;2023-02-02T13:02:13;88154.63;;;3.80;57.02
8047;BME280;67150;42.516;23.358;2023-02-02T13:05:25;88151.97;;;3.83;56.92
8047;BME280;67150;42.516;23.358;2023-02-02T13:08:17;88156.13;;;3.82;56.64
8047;BME280;67150;42.516;23.358;2023-02-02T13:11:08;88145.38;;;3.82;56.65
8047;BME280;67150;42.516;23.358;2023-02-02T13:14:17;88142.41;;;3.75;56.36
8047;BME280;67150;42.516;23.358;2023-02-02T13:17:08;88140.00;;;3.74;56.26
8047;BME280;67150;42.516;23.358;2023-02-02T13:19:59;88165.56;;;3.77;56.20
8047;BME280;67150;42.516;23.358;2023-02-02T13:22:51;88174.06;;;3.73;56.36
8047;BME280;67150;42.516;23.358;2023-02-02T13:25:43;88163.94;;;3.76;56.29
8047;BME280;67150;42.516;23.358;2023-02-02T13:28:36;88153.41;;;3.71;56.58
8047;BME280;67150;42.516;23.358;2023-02-02T13:31:29;88148.44;;;3.71;56.35
8047;BME280;67150;42.516;23.358;2023-02-02T13:34:22;88156.88;;;3.69;56.42
8047;BME280;67150;42.516;23.358;2023-02-02T13:37:13;88169.50;;;3.66;56.37
8047;BME280;67150;42.516;23.358;2023-02-02T13:40:03;88161.00;;;3.70;56.32
8047;BME280;67150;42.516;23.358;2023-02-02T13:42:54;88152.72;;;3.69;56.02
8047;BME280;67150;42.516;23.358;2023-02-02T13:45:48;88147.94;;;3.65;56.17
8047;BME280;67150;42.516;23.358;2023-02-02T13:48:44;88159.22;;;3.72;55.98
8047;BME280;67150;42.516;23.358;2023-02-02T13:51:50;88186.28;;;3.62;56.32
8047;BME280;67150;42.516;23.358;2023-02-02T13:58:13;88147.56;;;3.57;56.70
8047;BME280;67150;42.516;23.358;2023-02-02T14:01:03;88146.69;;;3.58;56.47
8047;BME280;67150;42.516;23.358;2023-02-02T14:03:53;88151.81;;;3.55;56.58
8047;BME280;67150;42.516;23.358;2023-02-02T14:06:53;88155.75;;;3.59;56.56
8047;BME280;67150;42.516;23.358;2023-02-02T14:09:40;88158.41;;;3.56;56.59
8047;BME280;67150;42.516;23.358;2023-02-02T14:12:29;88127.91;;;3.52;56.78
8047;BME280;67150;42.516;23.358;2023-02-02T14:15:15;88141.88;;;3.55;56.54
8047;BME280;67150;42.516;23.358;2023-02-02T14:18:02;88136.31;;;3.50;56.73
8047;BME280;67150;42.516;23.358;2023-02-02T14:20:49;88135.59;;;3.48;56.77
8047;BME280;67150;42.516;23.358;2023-02-02T14:23:56;88131.16;;;3.53;56.73
8047;BME280;67150;42.516;23.358;2023-02-02T14:26:44;88168.84;;;3.47;56.68
8047;BME280;67150;42.516;23.358;2023-02-02T14:29:34;88133.91;;;3.48;56.69
8047;BME280;67150;42.516;23.358;2023-02-02T14:32:31;88128.84;;;3.50;56.96
8047;BME280;67150;42.516;23.358;2023-02-02T14:35:57;88149.72;;;3.47;57.07
8047;BME280;67150;42.516;23.358;2023-02-02T14:39:15;88137.38;;;3.46;57.40
8047;BME280;67150;42.516;23.358;2023-02-02T14:42:15;88146.69;;;3.42;57.32
8047;BME280;67150;42.516;23.358;2023-02-02T14:45:28;88154.97;;;3.43;57.52
8047;BME280;67150;42.516;23.358;2023-02-02T14:48:16;88143.53;;;3.38;57.33
8047;BME280;67150;42.516;23.358;2023-02-02T14:51:12;88152.63;;;3.39;57.59
8047;BME280;67150;42.516;23.358;2023-02-02T14:54:00;88154.41;;;3.37;57.46
8047;BME280;67150;42.516;23.358;2023-02-02T14:56:49;88157.66;;;3.38;57.79
8047;BME280;67150;42.516;23.358;2023-02-02T14:59:45;88177.53;;;3.39;57.94
8047;BME280;67150;42.516;23.358;2023-02-02T15:02:32;88170.88;;;3.40;57.88
8047;BME280;67150;42.516;23.358;2023-02-02T15:05:35;88168.44;;;3.38;57.72
8047;BME280;67150;42.516;23.358;2023-02-02T15:08:26;88185.88;;;3.38;57.83
8047;BME280;67150;42.516;23.358;2023-02-02T15:11:12;88176.72;;;3.39;57.98
8047;BME280;67150;42.516;23.358;2023-02-02T15:14:14;88175.59;;;3.45;58.01
8047;BME280;67150;42.516;23.358;2023-02-02T15:17:02;88171.47;;;3.44;58.03
8047;BME280;67150;42.516;23.358;2023-02-02T15:19:53;88169.97;;;3.41;57.84
8047;BME280;67150;42.516;23.358;2023-02-02T15:22:44;88183.31;;;3.40;58.01